createdAt,value
2023-05-22T00:14:14.340Z,22.30
2023-05-22T00:16:48.601Z,15.00
2023-05-22T00:19:23.449Z,14.40
2023-05-22T00:21:55.593Z,14.40
2023-05-22T00:24:27.767Z,14.30
2023-05-22T00:57:38.614Z,14.30
2023-05-22T01:00:11.572Z,13.90
2023-05-22T01:02:44.489Z,13.90
2023-05-22T01:05:18.405Z,13.90
2023-05-22T01:07:50.674Z,13.90
2023-05-22T01:10:23.869Z,13.80
2023-05-22T01:13:00.728Z,13.80
2023-05-22T01:15:39.927Z,13.70
2023-05-22T01:18:31.374Z,13.70
2023-05-22T01:21:05.257Z,13.60
2023-05-22T01:24:11.892Z,13.60
2023-05-22T01:27:18.798Z,13.70
2023-05-22T01:30:17.298Z,13.60
2023-05-22T01:32:50.335Z,13.60
2023-05-22T01:35:23.625Z,13.70
2023-05-22T01:37:57.227Z,13.60
2023-05-22T01:40:29.952Z,13.50
2023-05-22T01:43:02.605Z,13.30
2023-05-22T01:45:35.158Z,13.30
2023-05-22T01:48:07.833Z,13.30
2023-05-22T01:50:41.185Z,13.40
2023-05-22T01:53:33.679Z,13.30
2023-05-22T01:56:12.717Z,13.10
2023-05-22T01:59:01.029Z,13.00
2023-05-22T02:01:37.793Z,13.00
2023-05-22T02:04:11.377Z,12.90
2023-05-22T02:06:44.642Z,12.90
2023-05-22T02:09:18.404Z,12.90
2023-05-22T02:11:50.744Z,13.00
2023-05-22T02:14:23.056Z,13.00
2023-05-22T02:16:56.928Z,13.00
2023-05-22T02:19:29.458Z,12.90
2023-05-22T02:22:02.045Z,12.90
2023-05-22T02:24:37.118Z,12.90
2023-05-22T02:27:09.986Z,12.90
2023-05-22T02:29:42.856Z,12.90
2023-05-22T02:32:15.229Z,13.00
2023-05-22T02:34:48.531Z,12.90
2023-05-22T02:37:20.860Z,12.90
2023-05-22T02:39:53.006Z,12.90
2023-05-22T02:42:25.571Z,12.80
2023-05-22T02:44:58.008Z,12.80
2023-05-22T02:47:30.317Z,12.70
2023-05-22T02:50:03.928Z,12.70
2023-05-22T02:52:39.455Z,12.70
2023-05-22T02:55:11.656Z,12.70
2023-05-22T02:57:43.788Z,12.70
2023-05-22T03:00:17.088Z,12.70
2023-05-22T03:02:49.517Z,12.70
2023-05-22T03:05:21.764Z,12.70
2023-05-22T03:07:53.895Z,12.70
2023-05-22T03:10:26.139Z,12.70
2023-05-22T03:12:58.732Z,12.60
2023-05-22T03:15:31.015Z,12.50
2023-05-22T03:18:09.801Z,12.60
2023-05-22T03:20:44.222Z,12.60
2023-05-22T03:23:16.704Z,12.50
2023-05-22T03:25:49.813Z,12.30
2023-05-22T03:28:22.110Z,12.40
2023-05-22T03:30:55.389Z,12.40
2023-05-22T03:33:32.211Z,12.40
2023-05-22T03:36:05.206Z,12.30
2023-05-22T03:38:37.396Z,12.40
2023-05-22T03:41:09.686Z,12.40
2023-05-22T03:43:44.786Z,12.50
2023-05-22T03:46:17.540Z,12.60
2023-05-22T03:48:50.033Z,12.60
2023-05-22T03:51:22.235Z,12.60
2023-05-22T03:53:54.368Z,12.60
2023-05-22T03:56:27.126Z,12.60
2023-05-22T03:58:59.652Z,12.60
2023-05-22T04:01:32.648Z,12.60
2023-05-22T04:04:06.097Z,12.60
2023-05-22T04:06:43.497Z,12.50
2023-05-22T04:09:18.251Z,12.50
2023-05-22T04:11:50.819Z,12.60
2023-05-22T04:14:22.970Z,12.60
2023-05-22T04:16:55.315Z,12.70
2023-05-22T04:19:28.423Z,12.60
2023-05-22T04:22:01.158Z,12.60
2023-05-22T04:24:33.421Z,12.70
2023-05-22T04:27:06.770Z,12.70
2023-05-22T04:29:41.784Z,12.70
2023-05-22T04:32:18.215Z,12.80
2023-05-22T04:34:51.270Z,12.80
2023-05-22T04:37:24.986Z,12.90
2023-05-22T04:39:58.465Z,12.90
2023-05-22T04:42:31.110Z,12.90
2023-05-22T04:45:03.688Z,12.90
2023-05-22T04:47:38.496Z,13.00
2023-05-22T04:50:14.543Z,13.00
2023-05-22T04:52:47.701Z,13.00
2023-05-22T04:55:20.567Z,13.20
2023-05-22T04:57:53.823Z,13.30
2023-05-22T05:00:28.882Z,13.40
2023-05-22T05:03:03.119Z,13.50
2023-05-22T05:05:35.678Z,13.60
2023-05-22T05:08:08.044Z,13.70
2023-05-22T05:10:40.858Z,13.80
2023-05-22T05:13:13.560Z,13.90
2023-05-22T05:15:45.938Z,14.10
2023-05-22T05:18:19.764Z,14.30
2023-05-22T05:20:51.971Z,14.30
2023-05-22T05:23:24.647Z,14.50
2023-05-22T05:25:57.104Z,14.70
2023-05-22T05:28:29.664Z,14.80
2023-05-22T05:31:02.436Z,14.90
2023-05-22T05:33:53.316Z,15.00
2023-05-22T05:36:46.537Z,15.10
2023-05-22T05:39:19.001Z,15.20
2023-05-22T05:41:51.257Z,15.20
2023-05-22T05:44:24.105Z,15.30
2023-05-22T05:46:57.941Z,15.50
2023-05-22T05:49:33.064Z,15.60
2023-05-22T05:52:08.140Z,15.80
2023-05-22T05:54:46.782Z,15.90
2023-05-22T05:57:22.116Z,16.00
2023-05-22T05:59:55.504Z,16.20
2023-05-22T06:02:48.223Z,16.30
2023-05-22T06:05:32.979Z,16.50
2023-05-22T06:08:16.831Z,16.70
2023-05-22T06:10:49.582Z,16.90
2023-05-22T06:13:37.048Z,17.10
2023-05-22T06:16:09.400Z,17.30
2023-05-22T06:18:41.560Z,17.50
2023-05-22T06:21:13.802Z,17.60
2023-05-22T06:23:46.448Z,17.70
2023-05-22T06:26:19.138Z,17.90
2023-05-22T06:28:52.339Z,18.00
2023-05-22T06:31:26.580Z,18.20
2023-05-22T06:34:02.039Z,18.30
2023-05-22T06:36:35.430Z,18.40
2023-05-22T06:39:08.821Z,18.50
2023-05-22T06:42:10.714Z,18.60
2023-05-22T06:45:01.561Z,18.80
2023-05-22T06:47:42.930Z,18.90
2023-05-22T06:50:15.368Z,18.90
2023-05-22T06:52:48.261Z,19.00
2023-05-22T06:55:21.621Z,19.10
2023-05-22T06:58:06.855Z,19.10
2023-05-22T07:00:40.550Z,19.30
2023-05-22T07:03:21.522Z,19.30
2023-05-22T07:06:12.570Z,19.40
2023-05-22T07:08:45.074Z,19.50
2023-05-22T07:11:17.221Z,19.50
2023-05-22T07:13:50.015Z,19.60
2023-05-22T07:16:23.437Z,19.80
2023-05-22T07:18:55.727Z,19.90
2023-05-22T07:21:30.459Z,20.00
2023-05-22T07:24:08.422Z,20.20
2023-05-22T07:26:46.684Z,20.20
2023-05-22T07:29:20.787Z,20.40
2023-05-22T07:31:56.890Z,20.50
2023-05-22T07:34:34.632Z,20.60
2023-05-22T07:37:13.935Z,20.50
2023-05-22T07:39:47.706Z,20.60
2023-05-22T07:42:21.899Z,20.70
2023-05-22T07:44:58.790Z,20.90
2023-05-22T07:47:31.381Z,20.90
2023-05-22T07:50:05.383Z,21.00
2023-05-22T07:52:40.245Z,21.10
2023-05-22T07:55:12.806Z,21.00
2023-05-22T07:57:47.980Z,21.20
2023-05-22T08:00:29.138Z,21.30
2023-05-22T08:03:01.454Z,21.30
2023-05-22T08:05:33.884Z,21.30
2023-05-22T08:08:06.057Z,21.20
2023-05-22T08:13:13.601Z,21.30
2023-05-22T08:15:45.833Z,21.40
2023-05-22T08:18:18.173Z,21.30
2023-05-22T08:20:54.371Z,21.40
2023-05-22T08:23:27.152Z,21.50
2023-05-22T08:25:59.355Z,21.80
2023-05-22T08:28:31.769Z,21.80
2023-05-22T08:31:07.026Z,21.90
2023-05-22T08:33:40.339Z,22.10
2023-05-22T08:36:13.391Z,22.20
2023-05-22T08:38:45.764Z,22.30
2023-05-22T08:41:17.969Z,22.30
2023-05-22T08:43:53.049Z,22.40
2023-05-22T08:46:26.722Z,22.40
2023-05-22T08:48:59.386Z,22.20
2023-05-22T08:51:34.525Z,22.10
2023-05-22T08:54:10.204Z,22.10
2023-05-22T08:56:53.101Z,22.20
2023-05-22T08:59:29.983Z,22.30
2023-05-22T09:02:06.658Z,22.60
2023-05-22T09:04:41.757Z,22.50
2023-05-22T09:07:14.703Z,22.50
2023-05-22T09:09:47.343Z,22.40
2023-05-22T09:12:19.780Z,22.50
2023-05-22T09:14:53.391Z,22.60
2023-05-22T09:17:26.895Z,22.70
2023-05-22T09:20:01.329Z,22.80
2023-05-22T09:22:40.800Z,22.90
2023-05-22T09:25:19.540Z,22.80
2023-05-22T09:27:51.881Z,22.90
2023-05-22T09:30:29.173Z,23.00
2023-05-22T09:33:01.583Z,23.10
2023-05-22T09:35:34.414Z,23.10
2023-05-22T09:38:06.759Z,23.20
2023-05-22T09:40:40.885Z,23.10
2023-05-22T09:43:18.189Z,23.00
2023-05-22T09:45:58.184Z,23.20
2023-05-22T09:48:36.731Z,23.20
2023-05-22T09:51:11.130Z,23.40
2023-05-22T09:53:44.463Z,23.40
2023-05-22T09:56:24.264Z,23.60
2023-05-22T09:59:06.346Z,23.60
2023-05-22T10:01:40.095Z,23.70
2023-05-22T10:04:17.295Z,23.80
2023-05-22T10:06:54.527Z,23.80
2023-05-22T10:09:32.314Z,23.90
2023-05-22T10:12:07.423Z,24.00
2023-05-22T10:14:40.082Z,24.00
2023-05-22T10:17:13.570Z,24.20
2023-05-22T10:19:47.197Z,25.00
2023-05-22T10:22:22.759Z,25.60
2023-05-22T10:24:55.643Z,26.10
2023-05-22T10:27:28.244Z,26.60
2023-05-22T10:30:22.226Z,26.70
2023-05-22T10:33:32.456Z,27.00
2023-05-22T10:36:08.872Z,26.80
2023-05-22T10:38:55.899Z,27.00
2023-05-22T10:44:02.931Z,27.20
2023-05-22T10:46:36.292Z,27.30
2023-05-22T10:49:09.097Z,27.50
2023-05-22T10:51:41.359Z,27.90
2023-05-22T10:54:14.084Z,28.20
2023-05-22T10:56:46.958Z,28.20
2023-05-22T10:59:33.622Z,27.60
2023-05-22T11:02:08.457Z,27.40
2023-05-22T11:04:41.864Z,27.30
2023-05-22T11:07:15.428Z,27.50
2023-05-22T11:09:48.806Z,27.40
2023-05-22T11:12:28.943Z,27.90
2023-05-22T11:15:10.883Z,27.90
2023-05-22T11:17:51.414Z,28.20
2023-05-22T11:20:30.930Z,28.40
2023-05-22T11:23:07.137Z,28.40
2023-05-22T11:25:41.653Z,28.40
2023-05-22T11:28:14.037Z,28.80
2023-05-22T11:30:47.762Z,29.20
2023-05-22T11:33:20.154Z,29.40
2023-05-22T11:35:54.644Z,29.40
2023-05-22T11:38:27.876Z,29.40
2023-05-22T11:41:00.071Z,29.80
2023-05-22T11:43:34.531Z,29.90
2023-05-22T11:46:09.166Z,29.90
2023-05-22T11:48:42.793Z,30.10
2023-05-22T11:51:18.896Z,30.00
2023-05-22T11:53:51.321Z,30.30
2023-05-22T11:56:23.600Z,30.30
2023-05-22T11:58:56.805Z,29.90
2023-05-22T12:01:28.999Z,29.90
2023-05-22T12:04:01.185Z,30.30
2023-05-22T12:06:33.756Z,30.60
2023-05-22T12:09:07.434Z,30.90
2023-05-22T12:11:39.885Z,30.70
2023-05-22T12:14:13.114Z,30.90
2023-05-22T12:16:45.880Z,30.80
2023-05-22T12:19:18.385Z,30.70
2023-05-22T12:21:51.394Z,30.90
2023-05-22T12:24:23.806Z,30.80
2023-05-22T12:26:56.733Z,30.70
2023-05-22T12:29:28.854Z,30.50
2023-05-22T12:32:11.137Z,30.70
2023-05-22T12:34:47.966Z,30.40
2023-05-22T12:37:28.357Z,30.30
2023-05-22T12:40:03.539Z,30.40
2023-05-22T12:42:37.200Z,30.00
2023-05-22T12:45:09.815Z,30.40
2023-05-22T12:47:42.202Z,30.50
2023-05-22T12:50:14.764Z,30.60
2023-05-22T12:52:46.940Z,30.60
2023-05-22T12:55:19.091Z,31.10
2023-05-22T12:57:51.413Z,31.10
2023-05-22T13:00:24.069Z,31.30
2023-05-22T13:02:56.629Z,31.40
2023-05-22T13:05:28.849Z,31.70
2023-05-22T13:08:01.084Z,31.80
2023-05-22T13:10:33.498Z,31.60
2023-05-22T13:13:05.796Z,31.60
2023-05-22T13:15:38.247Z,31.70
2023-05-22T13:18:12.096Z,31.50
2023-05-22T13:20:44.649Z,31.50
2023-05-22T13:23:16.933Z,31.80
2023-05-22T13:25:49.153Z,32.00
2023-05-22T13:28:21.520Z,32.00
2023-05-22T13:30:53.896Z,32.20
2023-05-22T13:33:26.866Z,31.90
2023-05-22T13:35:59.137Z,31.70
2023-05-22T13:38:31.265Z,31.30
2023-05-22T13:41:03.487Z,31.20
2023-05-22T13:43:35.857Z,31.30
2023-05-22T13:46:08.395Z,31.30
2023-05-22T13:48:41.006Z,31.60
2023-05-22T13:51:13.444Z,31.50
2023-05-22T13:53:47.974Z,31.50
2023-05-22T13:56:20.249Z,31.70
2023-05-22T13:58:53.234Z,31.90
2023-05-22T14:01:25.744Z,31.90
2023-05-22T14:03:58.143Z,31.90
2023-05-22T14:06:30.894Z,32.10
2023-05-22T14:09:06.190Z,32.00
2023-05-22T14:11:38.527Z,31.80
2023-05-22T14:14:11.299Z,31.70
2023-05-22T14:16:43.643Z,31.70
2023-05-22T14:19:17.734Z,31.30
2023-05-22T14:21:52.012Z,31.10
2023-05-22T14:24:24.580Z,31.30
2023-05-22T14:26:58.353Z,31.70
2023-05-22T14:29:31.241Z,31.90
2023-05-22T14:32:05.029Z,31.60
2023-05-22T14:34:37.356Z,31.30
2023-05-22T14:37:09.958Z,31.20
2023-05-22T14:39:42.505Z,31.00
2023-05-22T14:42:14.892Z,30.70
2023-05-22T14:44:47.170Z,30.80
2023-05-22T14:47:19.401Z,30.70
2023-05-22T14:49:52.493Z,30.70
2023-05-22T14:52:25.624Z,30.90
2023-05-22T14:54:58.301Z,30.50
2023-05-22T14:57:31.391Z,30.30
2023-05-22T15:00:06.785Z,30.30
2023-05-22T15:02:39.272Z,30.40
2023-05-22T15:05:12.158Z,30.20
2023-05-22T15:07:46.665Z,29.60
2023-05-22T15:10:20.406Z,28.50
2023-05-22T15:12:53.396Z,27.20
2023-05-22T15:15:25.821Z,26.60
2023-05-22T15:18:00.899Z,25.80
2023-05-22T15:20:33.776Z,25.60
2023-05-22T15:23:06.307Z,25.20
2023-05-22T15:25:38.839Z,24.80
2023-05-22T15:28:11.733Z,24.50
2023-05-22T15:30:44.322Z,24.80
2023-05-22T15:33:17.133Z,25.00
2023-05-22T15:35:49.740Z,25.10
2023-05-22T15:38:22.131Z,25.00
2023-05-22T15:40:54.658Z,25.20
2023-05-22T15:43:27.308Z,25.20
2023-05-22T15:46:00.187Z,25.30
2023-05-22T15:48:35.146Z,25.00
2023-05-22T15:51:09.842Z,24.70
2023-05-22T15:53:41.968Z,24.70
2023-05-22T15:56:14.157Z,24.70
2023-05-22T15:58:46.484Z,24.90
2023-05-22T16:01:18.811Z,25.00
2023-05-22T16:03:51.498Z,25.20
2023-05-22T16:06:24.220Z,25.20
2023-05-22T16:08:56.337Z,25.00
2023-05-22T16:11:28.738Z,25.20
2023-05-22T16:14:01.466Z,25.50
2023-05-22T16:16:33.762Z,25.50
2023-05-22T16:19:06.096Z,25.30
2023-05-22T16:21:38.755Z,25.10
2023-05-22T16:24:11.385Z,24.90
2023-05-22T16:26:43.502Z,24.90
2023-05-22T16:29:18.015Z,24.80
2023-05-22T16:31:50.209Z,24.70
2023-05-22T16:34:22.393Z,24.80
2023-05-22T16:36:54.529Z,25.10
2023-05-22T16:39:28.179Z,25.50
2023-05-22T16:42:01.207Z,25.80
2023-05-22T16:44:33.424Z,26.10
2023-05-22T16:47:05.974Z,26.40
2023-05-22T16:49:41.762Z,26.70
2023-05-22T16:54:50.961Z,26.70
2023-05-22T16:57:23.399Z,26.30
2023-05-22T16:59:57.714Z,26.00
2023-05-22T17:02:30.279Z,25.80
2023-05-22T17:05:02.533Z,25.70
2023-05-22T17:07:34.672Z,25.30
2023-05-22T17:10:07.462Z,25.20
2023-05-22T17:12:39.576Z,25.00
2023-05-22T17:15:12.287Z,24.80
2023-05-22T17:17:44.685Z,24.50
2023-05-22T17:20:17.423Z,24.50
2023-05-22T17:22:49.582Z,24.40
2023-05-22T17:25:22.281Z,24.30
2023-05-22T17:27:54.631Z,24.20
2023-05-22T17:30:26.799Z,24.00
2023-05-22T17:32:59.172Z,23.90
2023-05-22T17:35:31.338Z,24.00
2023-05-22T17:38:03.597Z,24.00
2023-05-22T17:40:44.815Z,24.00
2023-05-22T17:43:21.558Z,23.90
2023-05-22T17:45:54.607Z,23.90
2023-05-22T17:48:27.386Z,23.80
2023-05-22T17:50:59.738Z,23.80
2023-05-22T17:53:35.680Z,23.80
2023-05-22T17:56:09.514Z,23.60
2023-05-22T17:58:41.720Z,23.40
2023-05-22T18:01:13.879Z,23.40
2023-05-22T18:03:47.320Z,23.50
2023-05-22T18:06:21.077Z,23.50
2023-05-22T18:08:55.925Z,23.40
2023-05-22T18:11:28.162Z,23.30
2023-05-22T18:14:00.340Z,23.20
2023-05-22T18:16:32.543Z,23.10
2023-05-22T18:19:05.423Z,23.00
2023-05-22T18:21:37.713Z,22.60
2023-05-22T18:24:09.895Z,22.40
2023-05-22T18:26:42.253Z,22.40
2023-05-22T18:29:14.484Z,22.20
2023-05-22T18:31:47.035Z,22.00
2023-05-22T18:34:19.498Z,21.90
2023-05-22T18:36:52.964Z,21.70
2023-05-22T18:39:25.122Z,21.70
2023-05-22T18:41:58.716Z,21.70
2023-05-22T18:44:31.145Z,21.70
2023-05-22T18:47:03.455Z,21.60
2023-05-22T18:49:36.391Z,21.50
2023-05-22T18:52:08.590Z,21.50
2023-05-22T18:54:41.119Z,21.30
2023-05-22T18:57:13.334Z,21.20
2023-05-22T18:59:46.307Z,21.10
2023-05-22T19:02:21.467Z,21.00
2023-05-22T19:04:53.809Z,21.00
2023-05-22T19:07:26.166Z,20.90
2023-05-22T19:09:58.695Z,21.00
2023-05-22T19:12:31.957Z,21.00
2023-05-22T19:15:05.602Z,21.00
2023-05-22T19:17:37.973Z,21.00
2023-05-22T19:20:11.204Z,20.90
2023-05-22T19:22:43.481Z,20.90
2023-05-22T19:25:16.295Z,20.90
2023-05-22T19:27:48.933Z,20.80
2023-05-22T19:30:22.113Z,20.70
2023-05-22T19:32:56.133Z,20.70
2023-05-22T19:35:28.348Z,20.60
2023-05-22T19:38:00.575Z,20.70
2023-05-22T19:40:32.701Z,20.70
2023-05-22T19:43:05.255Z,20.70
2023-05-22T19:45:37.439Z,20.60
2023-05-22T19:48:09.691Z,20.60
2023-05-22T19:50:42.175Z,20.50
2023-05-22T19:53:15.014Z,20.40
2023-05-22T19:55:47.774Z,20.50
2023-05-22T19:58:20.212Z,20.40
2023-05-22T20:00:53.051Z,20.40
2023-05-22T20:03:26.528Z,20.30
2023-05-22T20:05:59.231Z,20.30
2023-05-22T20:08:31.522Z,20.10
2023-05-22T20:11:03.885Z,20.00
2023-05-22T20:13:36.587Z,20.00
2023-05-22T20:16:12.043Z,20.10
2023-05-22T20:18:44.981Z,20.00
2023-05-22T20:21:18.481Z,20.00
2023-05-22T20:23:51.518Z,20.00
2023-05-22T20:26:24.032Z,19.90
2023-05-22T20:28:56.715Z,19.80
2023-05-22T20:31:31.803Z,19.80
2023-05-22T20:34:05.137Z,19.70
2023-05-22T20:36:39.086Z,19.60
2023-05-22T20:39:12.040Z,19.50
2023-05-22T20:41:44.702Z,19.50
2023-05-22T20:44:24.932Z,19.50
2023-05-22T20:46:57.372Z,19.60
2023-05-22T20:49:30.127Z,19.50
2023-05-22T20:52:03.292Z,19.40
2023-05-22T20:54:35.898Z,19.40
2023-05-22T20:57:08.053Z,19.20
2023-05-22T20:59:41.057Z,19.10
2023-05-22T21:02:13.592Z,19.20
2023-05-22T21:04:45.984Z,19.10
2023-05-22T21:07:18.413Z,19.00
2023-05-22T21:09:50.686Z,18.90
2023-05-22T21:12:22.889Z,18.80
2023-05-22T21:14:55.280Z,19.00
2023-05-22T21:17:27.506Z,19.00
2023-05-22T21:19:59.799Z,18.80
2023-05-22T21:22:31.947Z,18.70
2023-05-22T21:25:04.325Z,18.50
2023-05-22T21:27:36.512Z,18.40
2023-05-22T21:30:14.597Z,18.30
2023-05-22T21:32:47.191Z,18.20
2023-05-22T21:35:19.369Z,18.10
2023-05-22T21:37:52.988Z,18.00
2023-05-22T21:40:26.881Z,17.90
2023-05-22T21:42:59.039Z,18.10
2023-05-22T21:45:31.529Z,18.10
2023-05-22T21:48:03.712Z,18.00
2023-05-22T21:50:36.565Z,17.90
2023-05-22T21:53:08.682Z,18.00
2023-05-22T21:55:41.301Z,18.00
2023-05-22T21:58:13.959Z,18.10
2023-05-22T22:00:46.330Z,18.10
2023-05-22T22:03:18.521Z,17.80
2023-05-22T22:05:50.912Z,17.70
2023-05-22T22:08:23.034Z,17.70
2023-05-22T22:10:55.588Z,17.80
2023-05-22T22:13:27.760Z,17.80
2023-05-22T22:15:59.912Z,17.70
2023-05-22T22:18:33.801Z,17.60
2023-05-22T22:21:06.020Z,17.40
2023-05-22T22:23:38.572Z,17.40
2023-05-22T22:26:12.321Z,17.20
2023-05-22T22:28:45.096Z,17.10
2023-05-22T22:31:17.854Z,17.00
2023-05-22T22:33:50.068Z,16.90
2023-05-22T22:36:23.135Z,16.90
2023-05-22T22:38:55.263Z,16.90
2023-05-22T22:41:28.100Z,16.80
2023-05-22T22:44:00.290Z,16.90
2023-05-22T22:46:32.916Z,17.00
2023-05-22T22:49:05.269Z,17.10
2023-05-22T22:51:37.737Z,17.10
2023-05-22T22:54:10.884Z,17.10
2023-05-22T22:56:43.466Z,17.20
2023-05-22T22:59:16.610Z,17.10
2023-05-22T23:01:48.759Z,17.00
2023-05-22T23:04:21.299Z,17.00
2023-05-22T23:06:53.695Z,17.00
2023-05-22T23:09:26.040Z,17.00
2023-05-22T23:11:58.177Z,16.90
2023-05-22T23:14:30.525Z,16.80
2023-05-22T23:17:02.761Z,16.80
2023-05-22T23:19:34.909Z,16.80
2023-05-22T23:22:08.114Z,16.90
2023-05-22T23:24:40.493Z,16.90
2023-05-22T23:27:12.746Z,16.90
2023-05-22T23:29:45.129Z,16.80
2023-05-22T23:32:17.282Z,16.80
2023-05-22T23:34:49.727Z,16.70
2023-05-22T23:37:21.866Z,16.70
2023-05-22T23:39:54.853Z,16.70
2023-05-22T23:42:27.333Z,16.60
2023-05-22T23:44:59.493Z,16.60
2023-05-22T23:47:31.878Z,16.50
2023-05-22T23:50:05.538Z,16.50
2023-05-22T23:52:38.016Z,16.40
2023-05-22T23:55:10.260Z,16.40
2023-05-22T23:57:42.447Z,16.40
